CheckWX is a tool to help pilots better visualize weather data.  It is not intended as a substitute for an official pre-flight weather briefing.

12:46:02 UTC

KIPT TAF
Williamsport Regional Airport
Williamsport, Pennsylvania, USA
KIPT 161208Z 1612/1712 VRB03KT P6SM SCT200 FM161900 23005KT P6SM VCTS BKN050CB TEMPO 1619/1623 3SM TSRA OVC025CB FM170000 VRB03KT P6SM VCSH BKN100 FM170600 VRB02KT P6SM BKN100

Jul-16@
12:00 UTC

Jul-16 @ 12:00 UTC

Jul-16@
19:00 UTC

Jul-16 @ 19:00 UTC

KIPT 161208Z 1612/1712 VRB03KT P6SM SCT200
Wind
  • Variable at 3 KTS
Cloud Levels
  • Scattered at 20,000' AGL

Jul-16@
19:00 UTC

Jul-16 @ 19:00 UTC

Jul-16@
23:00 UTC

Jul-16 @ 23:00 UTC

TEMPO 1619/1623 3SM TSRA OVC025CB

Temporary

Temporary Changes expected for less than half the time period

Conditions
Thunderstorm, Rain
Cloud Levels
  • Overcast at 2,500' AGL

Jul-16@
19:00 UTC

Jul-16 @ 19:00 UTC

Jul-17@
00:00 UTC

Jul-17 @ 00:00 UTC

FM161900 23005KT P6SM VCTS BKN050CB

From

From Standard forecast or significant change

Wind
  • 230° at 5 KTS
Conditions
Area Thunderstorm
Cloud Levels
  • Broken at 5,000' AGL

Jul-17@
00:00 UTC

Jul-17 @ 00:00 UTC

Jul-17@
06:00 UTC

Jul-17 @ 06:00 UTC

FM170000 VRB03KT P6SM VCSH BKN100

From

From Standard forecast or significant change

Wind
  • Variable at 3 KTS
Cloud Levels
  • Broken at 10,000' AGL

Jul-17@
06:00 UTC

Jul-17 @ 06:00 UTC

Jul-17@
12:00 UTC

Jul-17 @ 12:00 UTC

FM170600 VRB02KT P6SM BKN100

From

From Standard forecast or significant change

Wind
  • Variable at 2 KTS
Cloud Levels
  • Broken at 10,000' AGL